createdAt,value
2023-02-28T00:01:29.676Z,4.55
2023-02-28T00:03:57.024Z,7.97
2023-02-28T00:06:25.213Z,6.82
2023-02-28T00:08:52.131Z,6.45
2023-02-28T00:11:18.950Z,7.15
2023-02-28T00:13:47.888Z,5.85
2023-02-28T00:16:19.705Z,7.03
2023-02-28T00:18:48.578Z,8.27
2023-02-28T00:21:17.308Z,5.95
2023-02-28T00:23:44.877Z,7.07
2023-02-28T00:26:12.135Z,9.15
2023-02-28T00:28:40.674Z,5.28
2023-02-28T00:31:07.552Z,7.40
2023-02-28T00:33:35.842Z,5.45
2023-02-28T00:36:09.194Z,6.25
2023-02-28T00:38:38.410Z,5.57
2023-02-28T00:41:05.745Z,6.25
2023-02-28T00:43:35.679Z,8.25
2023-02-28T00:46:03.289Z,4.13
2023-02-28T00:48:31.346Z,8.23
2023-02-28T00:50:58.206Z,4.90
2023-02-28T00:53:25.787Z,5.30
2023-02-28T00:55:53.016Z,6.85
2023-02-28T00:58:19.971Z,4.32
2023-02-28T01:00:50.433Z,6.47
2023-02-28T01:03:19.601Z,5.63
2023-02-28T01:05:47.613Z,4.47
2023-02-28T01:08:15.252Z,4.40
2023-02-28T01:10:42.589Z,5.15
2023-02-28T01:13:09.581Z,6.22
2023-02-28T01:15:38.913Z,8.05
2023-02-28T01:18:05.869Z,9.70
2023-02-28T01:20:32.706Z,4.15
2023-02-28T01:22:59.472Z,5.38
2023-02-28T01:25:26.483Z,6.20
2023-02-28T01:27:53.307Z,4.28
2023-02-28T01:30:20.446Z,4.90
2023-02-28T01:32:47.886Z,4.57
2023-02-28T01:35:14.724Z,4.82
2023-02-28T01:37:41.533Z,3.33
2023-02-28T01:40:09.500Z,4.45
2023-02-28T01:42:36.368Z,4.05
2023-02-28T01:45:29.327Z,6.60
2023-02-28T01:48:08.891Z,5.93
2023-02-28T01:50:46.200Z,4.43
2023-02-28T01:53:21.350Z,5.57
2023-02-28T01:55:52.909Z,4.80
2023-02-28T01:58:21.803Z,3.88
2023-02-28T02:00:48.846Z,3.78
2023-02-28T02:03:21.169Z,4.75
2023-02-28T02:05:48.944Z,5.28
2023-02-28T02:08:25.674Z,5.03
2023-02-28T02:10:58.318Z,5.43
2023-02-28T02:13:54.240Z,5.95
2023-02-28T02:16:43.352Z,5.90
2023-02-28T02:19:29.440Z,4.68
2023-02-28T02:22:10.829Z,3.72
2023-02-28T02:25:29.157Z,3.90
2023-02-28T02:27:58.773Z,2.88
2023-02-28T02:30:52.999Z,5.97
2023-02-28T02:33:40.946Z,7.80
2023-02-28T02:36:36.355Z,5.55
2023-02-28T02:39:10.190Z,5.75
2023-02-28T02:41:50.283Z,3.83
2023-02-28T02:44:29.566Z,5.68
2023-02-28T02:47:06.459Z,4.85
2023-02-28T02:49:39.151Z,5.95
2023-02-28T02:52:15.357Z,5.47
2023-02-28T02:54:48.815Z,3.95
2023-02-28T02:57:26.472Z,3.75
2023-02-28T02:59:57.309Z,4.32
2023-02-28T03:02:27.013Z,9.38
2023-02-28T03:05:02.274Z,6.03
2023-02-28T03:07:29.605Z,4.40
2023-02-28T03:09:58.460Z,5.82
2023-02-28T03:12:49.626Z,6.22
2023-02-28T03:15:30.502Z,3.95
2023-02-28T03:18:10.929Z,3.33
2023-02-28T03:21:16.779Z,4.05
2023-02-28T03:23:54.756Z,4.75
2023-02-28T03:26:27.712Z,4.03
2023-02-28T03:29:23.404Z,4.03
2023-02-28T03:32:01.236Z,5.97
2023-02-28T03:34:35.288Z,5.05
2023-02-28T03:37:12.427Z,2.95
2023-02-28T03:39:46.409Z,2.78
2023-02-28T03:42:20.825Z,5.97
2023-02-28T03:45:03.545Z,5.63
2023-02-28T03:47:59.773Z,6.18
2023-02-28T03:50:44.857Z,4.90
2023-02-28T03:53:40.614Z,4.43
2023-02-28T03:56:34.070Z,4.50
2023-02-28T03:59:17.421Z,7.47
2023-02-28T04:01:48.261Z,5.50
2023-02-28T04:04:17.806Z,4.30
2023-02-28T04:06:46.088Z,4.85
2023-02-28T04:09:15.669Z,6.50
2023-02-28T04:11:47.529Z,4.97
2023-02-28T04:14:14.295Z,5.82
2023-02-28T04:16:43.230Z,5.65
2023-02-28T04:19:12.707Z,5.63
2023-02-28T04:21:46.575Z,5.40
2023-02-28T04:24:17.995Z,6.32
2023-02-28T04:26:48.226Z,8.93
2023-02-28T04:29:25.084Z,6.47
2023-02-28T04:31:54.076Z,5.82
2023-02-28T04:34:22.133Z,10.88
2023-02-28T04:37:10.154Z,7.32
2023-02-28T04:39:39.877Z,6.53
2023-02-28T04:42:07.210Z,4.70
2023-02-28T04:44:34.057Z,6.32
2023-02-28T04:47:01.127Z,5.03
2023-02-28T04:49:27.976Z,6.03
2023-02-28T04:51:55.000Z,5.57
2023-02-28T04:54:22.189Z,5.68
2023-02-28T04:56:50.802Z,6.10
2023-02-28T04:59:18.451Z,5.85
2023-02-28T05:01:50.234Z,4.13
2023-02-28T05:04:18.345Z,5.35
2023-02-28T05:06:45.267Z,4.50
2023-02-28T05:09:15.322Z,6.65
2023-02-28T05:11:42.321Z,6.47
2023-02-28T05:14:15.531Z,5.40
2023-02-28T05:16:43.146Z,4.40
2023-02-28T05:19:10.193Z,5.07
2023-02-28T05:21:42.805Z,4.43
2023-02-28T05:24:13.371Z,4.80
2023-02-28T05:26:43.967Z,4.38
2023-02-28T05:29:11.594Z,5.43
2023-02-28T05:31:39.688Z,5.18
2023-02-28T05:34:07.357Z,7.22
2023-02-28T05:36:34.624Z,5.53
2023-02-28T05:39:01.773Z,5.30
2023-02-28T05:41:29.032Z,4.45
2023-02-28T05:43:56.279Z,4.53
2023-02-28T05:46:23.152Z,5.85
2023-02-28T05:48:50.151Z,4.47
2023-02-28T05:51:17.960Z,6.30
2023-02-28T05:53:45.237Z,6.00
2023-02-28T05:56:12.040Z,5.65
2023-02-28T05:58:39.021Z,5.05
2023-02-28T06:01:49.292Z,5.47
2023-02-28T06:04:30.984Z,4.57
2023-02-28T06:06:59.085Z,3.63
2023-02-28T06:09:26.012Z,4.20
2023-02-28T06:11:53.016Z,4.38
2023-02-28T06:14:21.447Z,6.40
2023-02-28T06:16:48.432Z,4.00
2023-02-28T06:19:16.208Z,5.13
2023-02-28T06:21:43.983Z,4.75
2023-02-28T06:24:10.972Z,7.38
2023-02-28T06:26:37.946Z,5.43
2023-02-28T06:29:04.823Z,5.18
2023-02-28T06:31:31.894Z,3.45
2023-02-28T06:33:59.133Z,5.13
2023-02-28T06:36:25.925Z,5.13
2023-02-28T06:38:55.630Z,5.18
2023-02-28T06:41:27.428Z,7.10
2023-02-28T06:43:55.006Z,5.47
2023-02-28T06:46:22.522Z,6.63
2023-02-28T06:48:49.616Z,6.60
2023-02-28T06:51:23.115Z,6.15
2023-02-28T06:53:50.039Z,3.88
2023-02-28T06:56:18.775Z,5.50
2023-02-28T06:58:53.788Z,5.18
2023-02-28T07:01:21.609Z,5.45
2023-02-28T07:03:52.932Z,5.18
2023-02-28T07:06:24.918Z,4.60
2023-02-28T07:08:53.926Z,6.45
2023-02-28T07:11:23.889Z,5.55
2023-02-28T07:13:51.933Z,5.05
2023-02-28T07:16:19.486Z,6.70
2023-02-28T07:18:46.529Z,5.28
2023-02-28T07:21:13.499Z,6.05
2023-02-28T07:23:40.605Z,4.82
2023-02-28T07:26:13.789Z,4.18
2023-02-28T07:28:40.679Z,6.13
2023-02-28T07:31:09.109Z,7.88
2023-02-28T07:33:36.170Z,5.45
2023-02-28T07:36:14.395Z,5.55
2023-02-28T07:38:41.750Z,5.95
2023-02-28T07:41:09.178Z,5.90
2023-02-28T07:43:36.587Z,5.07
2023-02-28T07:46:08.588Z,6.47
2023-02-28T07:48:36.132Z,7.13
2023-02-28T07:51:03.985Z,6.43
2023-02-28T07:53:31.388Z,6.78
2023-02-28T07:56:00.529Z,5.65
2023-02-28T07:58:30.037Z,4.93
2023-02-28T08:00:58.106Z,7.43
2023-02-28T08:03:25.713Z,5.65
2023-02-28T08:05:53.649Z,6.43
2023-02-28T08:08:20.610Z,6.40
2023-02-28T08:10:47.430Z,7.63
2023-02-28T08:13:14.340Z,5.53
2023-02-28T08:15:43.853Z,6.00
2023-02-28T08:18:11.177Z,5.63
2023-02-28T08:20:38.090Z,7.88
2023-02-28T08:23:04.889Z,6.15
2023-02-28T08:25:31.850Z,6.70
2023-02-28T08:28:02.212Z,7.10
2023-02-28T08:30:29.023Z,6.38
2023-02-28T08:32:56.344Z,5.28
2023-02-28T08:35:23.899Z,6.78
2023-02-28T08:37:51.440Z,6.20
2023-02-28T08:40:21.459Z,5.65
2023-02-28T08:42:49.175Z,8.05
2023-02-28T08:45:16.327Z,7.18
2023-02-28T08:47:43.357Z,5.50
2023-02-28T08:50:11.235Z,6.50
2023-02-28T08:52:39.421Z,7.03
2023-02-28T08:55:06.733Z,6.32
2023-02-28T08:57:33.730Z,6.82
2023-02-28T09:00:00.652Z,5.38
2023-02-28T09:02:27.615Z,6.32
2023-02-28T09:04:54.628Z,5.75
2023-02-28T09:07:21.457Z,4.43
2023-02-28T09:09:58.668Z,5.53
2023-02-28T09:12:27.695Z,4.25
2023-02-28T09:14:54.891Z,4.22
2023-02-28T09:17:21.700Z,6.47
2023-02-28T09:19:51.673Z,6.13
2023-02-28T09:22:18.648Z,5.57
2023-02-28T09:24:45.856Z,4.72
2023-02-28T09:27:12.831Z,7.38
2023-02-28T09:29:39.762Z,3.97
2023-02-28T09:32:06.911Z,5.45
2023-02-28T09:34:34.449Z,5.72
2023-02-28T09:37:01.444Z,5.47
2023-02-28T09:39:29.426Z,4.03
2023-02-28T09:41:57.411Z,5.57
2023-02-28T09:44:38.368Z,5.55
2023-02-28T09:47:37.405Z,4.18
2023-02-28T09:50:30.669Z,5.07
2023-02-28T09:52:59.038Z,3.83
2023-02-28T09:55:46.481Z,4.55
2023-02-28T09:58:29.363Z,5.05
2023-02-28T10:01:18.646Z,3.85
2023-02-28T10:04:05.944Z,3.72
2023-02-28T10:06:49.573Z,4.65
2023-02-28T10:09:28.064Z,6.53
2023-02-28T10:12:02.962Z,4.00
2023-02-28T10:14:34.628Z,3.72
2023-02-28T10:17:14.378Z,5.47
2023-02-28T10:19:56.186Z,4.18
2023-02-28T10:22:59.159Z,3.13
2023-02-28T10:25:30.366Z,4.38
2023-02-28T10:28:08.870Z,2.88
2023-02-28T10:30:44.659Z,2.63
2023-02-28T10:33:29.673Z,2.67
2023-02-28T10:35:56.916Z,4.65
2023-02-28T10:38:51.350Z,1.83
2023-02-28T10:41:31.355Z,2.30
2023-02-28T10:44:24.604Z,3.08
2023-02-28T10:46:52.749Z,2.72
2023-02-28T10:49:27.813Z,4.03
2023-02-28T10:52:01.447Z,3.08
2023-02-28T10:54:36.596Z,2.78
2023-02-28T10:57:22.441Z,3.65
2023-02-28T11:00:06.184Z,2.20
2023-02-28T11:02:39.070Z,3.47
2023-02-28T11:05:31.761Z,2.80
2023-02-28T11:08:17.177Z,2.22
2023-02-28T11:11:01.674Z,2.53
2023-02-28T11:13:38.910Z,2.90
2023-02-28T11:16:11.140Z,3.22
2023-02-28T11:18:55.360Z,2.60
2023-02-28T11:21:29.885Z,4.25
2023-02-28T11:24:16.123Z,2.20
2023-02-28T11:26:52.191Z,2.38
2023-02-28T11:29:29.218Z,5.20
2023-02-28T11:32:22.231Z,2.60
2023-02-28T11:35:12.417Z,2.78
2023-02-28T11:37:40.502Z,3.17
2023-02-28T11:40:22.729Z,2.55
2023-02-28T11:43:06.232Z,3.13
2023-02-28T11:45:43.733Z,4.00
2023-02-28T11:48:39.523Z,3.80
2023-02-28T11:51:34.703Z,3.03
2023-02-28T11:54:31.663Z,2.30
2023-02-28T11:57:16.932Z,2.50
2023-02-28T12:00:26.485Z,2.95
2023-02-28T12:03:15.603Z,3.83
2023-02-28T12:05:54.065Z,3.53
2023-02-28T12:09:11.766Z,3.25
2023-02-28T12:12:13.762Z,1.85
2023-02-28T12:14:50.703Z,3.05
2023-02-28T12:17:44.229Z,1.77
2023-02-28T12:20:48.611Z,1.73
2023-02-28T12:23:48.592Z,2.22
2023-02-28T12:26:40.784Z,2.53
2023-02-28T12:29:30.376Z,3.88
2023-02-28T12:32:10.853Z,2.03
2023-02-28T12:34:48.826Z,3.28
2023-02-28T12:37:44.096Z,3.80
2023-02-28T12:40:23.680Z,2.50
2023-02-28T12:42:59.093Z,2.35
2023-02-28T12:46:10.358Z,2.47
2023-02-28T12:48:54.322Z,2.08
2023-02-28T12:51:22.376Z,2.28
2023-02-28T12:54:13.006Z,2.35
2023-02-28T12:56:48.649Z,2.53
2023-02-28T12:59:30.892Z,2.78
2023-02-28T13:02:52.711Z,1.92
2023-02-28T13:05:43.060Z,1.85
2023-02-28T13:08:35.368Z,2.90
2023-02-28T13:11:07.520Z,2.75
2023-02-28T13:13:35.278Z,2.70
2023-02-28T13:16:10.555Z,2.22
2023-02-28T13:18:48.112Z,4.63
2023-02-28T13:21:32.069Z,3.95
2023-02-28T13:24:09.985Z,2.50
2023-02-28T13:26:36.995Z,2.47
2023-02-28T13:29:16.723Z,2.97
2023-02-28T13:32:11.308Z,2.25
2023-02-28T13:34:49.907Z,2.75
2023-02-28T13:37:23.017Z,2.75
2023-02-28T13:39:58.466Z,2.97
2023-02-28T13:42:50.552Z,2.92
2023-02-28T13:45:30.986Z,2.72
2023-02-28T13:48:17.527Z,3.17
2023-02-28T13:50:45.161Z,2.17
2023-02-28T13:53:15.015Z,3.45
2023-02-28T13:56:26.069Z,2.42
2023-02-28T13:59:17.299Z,2.30
2023-02-28T14:02:29.362Z,2.92
2023-02-28T14:05:20.642Z,3.08
2023-02-28T14:07:55.582Z,3.72
2023-02-28T14:10:42.823Z,2.65
2023-02-28T14:13:46.117Z,2.42
2023-02-28T14:16:30.921Z,3.28
2023-02-28T14:19:06.460Z,5.47
2023-02-28T14:21:44.165Z,4.43
2023-02-28T14:24:41.925Z,2.75
2023-02-28T14:27:30.532Z,4.38
2023-02-28T14:30:52.333Z,4.15
2023-02-28T14:33:38.608Z,2.63
2023-02-28T14:36:36.070Z,5.05
2023-02-28T14:39:14.521Z,4.38
2023-02-28T14:41:44.779Z,3.80
2023-02-28T14:44:27.531Z,3.47
2023-02-28T14:47:06.431Z,3.25
2023-02-28T14:49:46.662Z,4.32
2023-02-28T14:52:13.410Z,3.97
2023-02-28T14:54:41.346Z,2.20
2023-02-28T14:57:24.635Z,3.28
2023-02-28T15:00:23.982Z,2.83
2023-02-28T15:02:51.013Z,2.90
2023-02-28T15:05:27.810Z,2.30
2023-02-28T15:08:17.106Z,2.38
2023-02-28T15:11:05.737Z,3.13
2023-02-28T15:13:50.472Z,2.85
2023-02-28T15:16:26.140Z,2.65
2023-02-28T15:19:01.174Z,3.53
2023-02-28T15:21:34.757Z,4.75
2023-02-28T15:24:38.493Z,3.65
2023-02-28T15:27:14.879Z,2.17
2023-02-28T15:29:54.554Z,2.90
2023-02-28T15:32:33.784Z,2.90
2023-02-28T15:35:36.322Z,2.85
2023-02-28T15:38:13.424Z,2.92
2023-02-28T15:40:45.654Z,3.38
2023-02-28T15:43:19.602Z,2.75
2023-02-28T15:46:15.160Z,3.05
2023-02-28T15:48:46.568Z,2.03
2023-02-28T15:51:18.032Z,2.78
2023-02-28T15:53:55.824Z,4.38
2023-02-28T15:56:32.800Z,3.88
2023-02-28T15:59:06.353Z,3.45
2023-02-28T16:01:39.025Z,2.60
2023-02-28T16:04:20.090Z,3.00
2023-02-28T16:07:01.024Z,2.83
2023-02-28T16:09:30.432Z,4.70
2023-02-28T16:12:02.690Z,3.47
2023-02-28T16:14:31.749Z,4.32
2023-02-28T16:17:06.643Z,4.30
2023-02-28T16:19:34.684Z,4.40
2023-02-28T16:22:02.073Z,4.85
2023-02-28T16:24:28.940Z,3.13
2023-02-28T16:26:58.060Z,4.82
2023-02-28T16:29:33.250Z,3.80
2023-02-28T16:32:01.189Z,3.67
2023-02-28T16:34:28.291Z,3.97
2023-02-28T16:36:55.189Z,2.95
2023-02-28T16:39:22.021Z,5.35
2023-02-28T16:41:51.149Z,4.60
2023-02-28T16:44:34.119Z,3.33
2023-02-28T16:47:02.660Z,3.72
2023-02-28T16:49:29.814Z,4.38
2023-02-28T16:51:57.082Z,4.22
2023-02-28T16:54:24.331Z,7.47
2023-02-28T16:56:51.334Z,4.63
2023-02-28T16:59:25.243Z,5.88
2023-02-28T17:01:52.902Z,4.20
2023-02-28T17:04:20.529Z,3.72
2023-02-28T17:06:47.506Z,5.30
2023-02-28T17:09:22.958Z,3.47
2023-02-28T17:11:51.343Z,3.47
2023-02-28T17:14:18.192Z,7.38
2023-02-28T17:16:45.122Z,4.82
2023-02-28T17:19:17.912Z,3.80
2023-02-28T17:21:45.660Z,4.60
2023-02-28T17:24:16.503Z,4.53
2023-02-28T17:26:46.475Z,5.60
2023-02-28T17:29:20.261Z,4.53
2023-02-28T17:31:47.232Z,5.30
2023-02-28T17:34:19.187Z,5.32
2023-02-28T17:36:48.152Z,5.90
2023-02-28T17:39:20.629Z,5.38
2023-02-28T17:41:47.411Z,5.78
2023-02-28T17:44:14.322Z,5.45
2023-02-28T17:46:42.379Z,5.15
2023-02-28T17:49:10.838Z,6.28
2023-02-28T17:51:37.782Z,4.68
2023-02-28T17:54:04.656Z,5.00
2023-02-28T17:56:32.006Z,6.15
2023-02-28T17:58:59.406Z,5.70
2023-02-28T18:01:27.051Z,7.13
2023-02-28T18:03:55.578Z,5.15
2023-02-28T18:06:28.270Z,7.32
2023-02-28T18:08:55.593Z,5.88
2023-02-28T18:11:24.459Z,5.25
2023-02-28T18:13:56.720Z,6.28
2023-02-28T18:16:23.729Z,8.40
2023-02-28T18:18:50.777Z,12.20
2023-02-28T18:21:18.091Z,5.38
2023-02-28T18:23:48.330Z,6.50
2023-02-28T18:26:18.102Z,7.28
2023-02-28T18:28:46.268Z,9.20
2023-02-28T18:31:18.827Z,7.57
2023-02-28T18:33:50.257Z,6.70
2023-02-28T18:36:18.516Z,6.13
2023-02-28T18:38:46.006Z,6.38
2023-02-28T18:41:13.642Z,6.38
2023-02-28T18:43:40.727Z,7.53
2023-02-28T18:46:12.820Z,5.70
2023-02-28T18:48:40.664Z,7.88
2023-02-28T18:51:15.056Z,6.85
2023-02-28T18:53:43.230Z,6.35
2023-02-28T18:56:21.041Z,9.10
2023-02-28T18:58:47.896Z,7.55
2023-02-28T19:01:29.860Z,10.57
2023-02-28T19:04:00.373Z,11.52
2023-02-28T19:06:32.728Z,10.40
2023-02-28T19:09:02.031Z,13.10
2023-02-28T19:11:29.196Z,10.70
2023-02-28T19:13:56.969Z,10.40
2023-02-28T19:16:25.158Z,8.63
2023-02-28T19:18:52.181Z,7.82
2023-02-28T19:21:21.996Z,8.00
2023-02-28T19:23:49.443Z,9.15
2023-02-28T19:26:22.800Z,8.50
2023-02-28T19:28:50.081Z,7.72
2023-02-28T19:31:24.532Z,11.75
2023-02-28T19:33:55.859Z,8.75
2023-02-28T19:36:23.734Z,9.57
2023-02-28T19:38:50.798Z,9.07
2023-02-28T19:41:19.011Z,8.80
2023-02-28T19:43:46.585Z,6.97
2023-02-28T19:46:14.069Z,7.38
2023-02-28T19:48:42.698Z,6.50
2023-02-28T19:51:13.741Z,7.15
2023-02-28T19:53:42.928Z,9.43
2023-02-28T19:56:10.617Z,11.25
2023-02-28T19:58:38.130Z,14.65
2023-02-28T20:01:18.898Z,17.52
2023-02-28T20:03:50.922Z,17.58
2023-02-28T20:06:17.974Z,18.20
2023-02-28T20:08:44.748Z,20.23
2023-02-28T20:11:15.604Z,23.27
2023-02-28T20:13:43.702Z,28.02
2023-02-28T20:16:13.235Z,26.27
2023-02-28T20:18:41.524Z,27.90
2023-02-28T20:21:10.152Z,25.25
2023-02-28T20:23:41.703Z,22.98
2023-02-28T20:26:09.804Z,22.70
2023-02-28T20:28:38.100Z,24.48
2023-02-28T20:31:25.506Z,28.80
2023-02-28T20:33:53.037Z,27.25
2023-02-28T20:36:22.474Z,22.20
2023-02-28T20:38:51.940Z,21.98
2023-02-28T20:41:19.507Z,15.50
2023-02-28T20:43:46.873Z,10.35
2023-02-28T20:46:14.077Z,12.82
2023-02-28T20:48:40.884Z,13.77
2023-02-28T20:51:08.324Z,13.40
2023-02-28T20:53:36.438Z,10.75
2023-02-28T20:56:12.564Z,11.80
2023-02-28T20:58:39.883Z,11.68
2023-02-28T21:01:26.015Z,12.10
2023-02-28T21:04:00.256Z,12.07
2023-02-28T21:06:40.390Z,12.57
2023-02-28T21:09:10.450Z,10.95
2023-02-28T21:11:39.505Z,10.88
2023-02-28T21:14:14.745Z,12.35
2023-02-28T21:16:42.587Z,11.32
2023-02-28T21:19:10.442Z,12.10
2023-02-28T21:21:44.255Z,10.45
2023-02-28T21:24:17.935Z,12.57
2023-02-28T21:26:47.033Z,11.68
2023-02-28T21:29:15.074Z,11.15
2023-02-28T21:31:42.494Z,10.65
2023-02-28T21:34:12.408Z,11.65
2023-02-28T21:36:45.448Z,14.35
2023-02-28T21:39:21.727Z,11.15
2023-02-28T21:41:48.907Z,11.10
2023-02-28T21:44:19.044Z,12.13
2023-02-28T21:46:49.837Z,13.27
2023-02-28T21:49:17.135Z,10.80
2023-02-28T21:51:44.434Z,11.18
2023-02-28T21:54:11.754Z,10.55
2023-02-28T21:56:39.045Z,10.63
2023-02-28T21:59:08.153Z,11.70
2023-02-28T22:01:38.971Z,15.82
2023-02-28T22:04:10.215Z,15.15
2023-02-28T22:06:40.908Z,14.98
2023-02-28T22:09:10.209Z,16.60
2023-02-28T22:11:39.190Z,15.63
2023-02-28T22:14:07.597Z,15.00
2023-02-28T22:16:49.536Z,15.80
2023-02-28T22:19:18.180Z,16.08
2023-02-28T22:21:45.814Z,15.68
2023-02-28T22:24:12.884Z,14.30
2023-02-28T22:26:39.695Z,14.55
2023-02-28T22:29:06.818Z,12.60
2023-02-28T22:31:36.530Z,13.98
2023-02-28T22:34:08.756Z,13.80
2023-02-28T22:36:36.097Z,12.70
2023-02-28T22:39:04.022Z,15.55
2023-02-28T22:41:31.279Z,13.13
2023-02-28T22:44:04.496Z,12.35
2023-02-28T22:46:34.059Z,14.18
2023-02-28T22:49:04.687Z,13.32
2023-02-28T22:51:31.876Z,12.80
2023-02-28T22:53:59.012Z,13.80
2023-02-28T22:56:29.025Z,11.32
2023-02-28T22:58:59.561Z,13.60
2023-02-28T23:01:31.079Z,13.25
2023-02-28T23:03:59.020Z,12.35
2023-02-28T23:06:34.231Z,14.20
2023-02-28T23:09:06.765Z,13.13
2023-02-28T23:11:42.227Z,11.73
2023-02-28T23:14:12.686Z,14.85
2023-02-28T23:16:45.130Z,13.35
2023-02-28T23:19:26.759Z,14.48
2023-02-28T23:21:54.629Z,12.02
2023-02-28T23:24:24.591Z,13.10
2023-02-28T23:26:55.401Z,12.82
2023-02-28T23:29:24.950Z,13.77
2023-02-28T23:31:52.497Z,13.00
2023-02-28T23:34:26.284Z,14.32
2023-02-28T23:36:55.272Z,12.77
2023-02-28T23:39:23.905Z,10.98
2023-02-28T23:41:51.806Z,13.77
2023-02-28T23:44:18.650Z,13.82
2023-02-28T23:46:51.895Z,14.23
2023-02-28T23:49:20.720Z,14.88
2023-02-28T23:51:49.316Z,20.08
2023-02-28T23:54:17.493Z,17.77
2023-02-28T23:56:45.051Z,17.52
2023-02-28T23:59:12.271Z,17.80
